createdAt,value
2022-10-08T00:02:15.130Z,2.70
2022-10-08T00:04:43.772Z,2.35
2022-10-08T00:07:12.015Z,2.33
2022-10-08T00:09:40.199Z,2.72
2022-10-08T00:12:08.593Z,2.42
2022-10-08T00:14:38.418Z,2.53
2022-10-08T00:17:06.618Z,2.37
2022-10-08T00:19:35.375Z,2.58
2022-10-08T00:22:03.474Z,2.85
2022-10-08T00:24:32.089Z,2.37
2022-10-08T00:27:00.526Z,2.70
2022-10-08T00:29:28.722Z,3.08
2022-10-08T00:31:58.511Z,2.37
2022-10-08T00:34:27.523Z,2.80
2022-10-08T00:36:56.827Z,2.60
2022-10-08T00:39:26.232Z,2.60
2022-10-08T00:41:57.204Z,3.00
2022-10-08T00:45:02.411Z,2.40
2022-10-08T00:47:46.232Z,2.80
2022-10-08T00:50:19.139Z,2.75
2022-10-08T00:52:51.202Z,3.40
2022-10-08T00:55:22.245Z,3.12
2022-10-08T00:57:52.252Z,2.80
2022-10-08T01:00:23.311Z,2.45
2022-10-08T01:02:53.320Z,2.30
2022-10-08T01:05:29.208Z,2.30
2022-10-08T01:08:05.349Z,2.70
2022-10-08T01:10:40.183Z,2.30
2022-10-08T01:13:20.662Z,2.97
2022-10-08T01:15:56.939Z,2.55
2022-10-08T01:18:34.801Z,2.50
2022-10-08T01:21:10.077Z,2.42
2022-10-08T01:23:53.159Z,2.67
2022-10-08T01:26:42.411Z,2.60
2022-10-08T01:29:18.274Z,2.30
2022-10-08T01:31:51.948Z,2.50
2022-10-08T01:34:26.843Z,2.40
2022-10-08T01:36:58.264Z,2.62
2022-10-08T01:39:30.649Z,2.92
2022-10-08T01:42:03.251Z,2.92
2022-10-08T01:44:38.873Z,2.95
2022-10-08T01:47:11.551Z,2.80
2022-10-08T01:49:45.482Z,2.70
2022-10-08T01:52:21.315Z,3.10
2022-10-08T01:54:52.666Z,2.80
2022-10-08T01:57:21.792Z,2.45
2022-10-08T01:59:56.415Z,2.58
2022-10-08T02:02:27.336Z,2.85
2022-10-08T02:04:57.357Z,2.80
2022-10-08T02:07:29.055Z,2.67
2022-10-08T02:10:06.535Z,3.40
2022-10-08T02:12:35.951Z,3.05
2022-10-08T02:15:08.190Z,3.00
2022-10-08T02:17:41.393Z,3.15
2022-10-08T02:20:18.569Z,2.90
2022-10-08T02:22:54.564Z,2.83
2022-10-08T02:25:30.337Z,2.72
2022-10-08T02:28:07.249Z,2.83
2022-10-08T02:30:42.005Z,2.60
2022-10-08T02:33:15.690Z,3.12
2022-10-08T02:35:49.235Z,2.05
2022-10-08T02:38:22.338Z,2.22
2022-10-08T02:40:54.070Z,3.33
2022-10-08T02:43:27.033Z,2.80
2022-10-08T02:46:01.375Z,2.62
2022-10-08T02:48:31.893Z,3.15
2022-10-08T02:51:06.315Z,2.80
2022-10-08T02:53:35.411Z,3.58
2022-10-08T02:56:14.743Z,3.30
2022-10-08T02:58:44.050Z,2.90
2022-10-08T03:01:19.103Z,3.03
2022-10-08T03:03:52.090Z,3.03
2022-10-08T03:06:21.279Z,3.20
2022-10-08T03:08:51.022Z,3.37
2022-10-08T03:11:19.387Z,2.85
2022-10-08T03:13:50.725Z,2.55
2022-10-08T03:16:23.577Z,2.75
2022-10-08T03:18:54.056Z,2.78
2022-10-08T03:21:22.836Z,2.97
2022-10-08T03:23:51.073Z,2.85
2022-10-08T03:26:19.516Z,2.92
2022-10-08T03:28:47.930Z,2.87
2022-10-08T03:31:16.361Z,3.03
2022-10-08T03:33:50.734Z,3.45
2022-10-08T03:36:19.294Z,3.50
2022-10-08T03:38:48.075Z,3.05
2022-10-08T03:41:17.210Z,3.42
2022-10-08T03:43:46.313Z,3.00
2022-10-08T03:46:16.240Z,2.92
2022-10-08T03:48:49.042Z,2.85
2022-10-08T03:51:19.136Z,3.30
2022-10-08T03:53:47.713Z,3.40
2022-10-08T03:56:18.243Z,2.90
2022-10-08T03:58:47.430Z,3.17
2022-10-08T04:01:17.188Z,3.05
2022-10-08T04:03:46.997Z,3.30
2022-10-08T04:06:15.875Z,3.22
2022-10-08T04:08:44.350Z,3.42
2022-10-08T04:11:15.509Z,3.95
2022-10-08T04:13:44.242Z,3.92
2022-10-08T04:16:15.025Z,3.35
2022-10-08T04:18:44.125Z,3.97
2022-10-08T04:21:15.905Z,3.47
2022-10-08T04:23:45.197Z,2.92
2022-10-08T04:26:15.416Z,3.58
2022-10-08T04:28:45.388Z,3.33
2022-10-08T04:31:17.341Z,3.50
2022-10-08T04:33:46.525Z,3.50
2022-10-08T04:36:17.557Z,3.55
2022-10-08T04:38:46.545Z,3.53
2022-10-08T04:41:17.190Z,3.30
2022-10-08T04:43:46.498Z,3.55
2022-10-08T04:46:16.239Z,3.90
2022-10-08T04:48:48.578Z,3.80
2022-10-08T04:51:19.951Z,3.83
2022-10-08T04:53:48.151Z,3.55
2022-10-08T04:56:19.269Z,3.67
2022-10-08T04:58:48.264Z,3.97
2022-10-08T05:01:18.862Z,3.65
2022-10-08T05:03:49.254Z,3.42
2022-10-08T05:06:20.779Z,3.10
2022-10-08T05:08:49.883Z,3.60
2022-10-08T05:11:19.279Z,3.55
2022-10-08T05:13:51.150Z,4.10
2022-10-08T05:16:19.987Z,4.00
2022-10-08T05:18:50.752Z,3.47
2022-10-08T05:21:21.950Z,3.45
2022-10-08T05:23:55.234Z,3.28
2022-10-08T05:26:41.533Z,4.55
2022-10-08T05:29:13.945Z,4.12
2022-10-08T05:31:42.068Z,3.65
2022-10-08T05:34:16.025Z,3.50
2022-10-08T05:36:45.805Z,3.47
2022-10-08T05:39:14.078Z,4.15
2022-10-08T05:41:42.885Z,3.95
2022-10-08T05:44:12.072Z,3.87
2022-10-08T05:46:41.048Z,4.20
2022-10-08T05:49:15.630Z,3.75
2022-10-08T05:51:45.424Z,4.05
2022-10-08T05:54:13.548Z,3.85
2022-10-08T05:56:41.678Z,3.85
2022-10-08T05:59:16.822Z,3.87
2022-10-08T06:01:45.510Z,3.65
2022-10-08T06:04:14.053Z,4.03
2022-10-08T06:06:44.938Z,3.20
2022-10-08T06:09:16.968Z,3.62
2022-10-08T06:11:45.629Z,3.33
2022-10-08T06:14:16.951Z,3.87
2022-10-08T06:16:45.131Z,3.80
2022-10-08T06:19:14.184Z,3.60
2022-10-08T06:21:42.395Z,3.65
2022-10-08T06:24:13.171Z,3.50
2022-10-08T06:26:44.437Z,3.83
2022-10-08T06:29:16.682Z,3.87
2022-10-08T06:31:46.035Z,3.80
2022-10-08T06:34:14.613Z,3.10
2022-10-08T06:36:42.743Z,4.30
2022-10-08T06:39:14.320Z,3.10
2022-10-08T06:41:43.824Z,3.72
2022-10-08T06:44:14.302Z,3.30
2022-10-08T06:46:42.754Z,3.55
2022-10-08T06:49:11.423Z,3.78
2022-10-08T06:51:39.916Z,3.03
2022-10-08T06:54:08.813Z,3.85
2022-10-08T06:56:37.504Z,3.92
2022-10-08T06:59:07.838Z,3.03
2022-10-08T07:01:36.748Z,3.20
2022-10-08T07:04:07.073Z,3.00
2022-10-08T07:06:35.856Z,3.37
2022-10-08T07:09:06.876Z,3.30
2022-10-08T07:11:35.361Z,2.28
2022-10-08T07:14:04.270Z,3.12
2022-10-08T07:16:33.933Z,2.90
2022-10-08T07:19:02.171Z,3.87
2022-10-08T07:21:31.462Z,2.62
2022-10-08T07:24:01.592Z,3.03
2022-10-08T07:26:32.440Z,2.50
2022-10-08T07:29:02.744Z,2.25
2022-10-08T07:31:34.308Z,2.75
2022-10-08T07:34:04.687Z,2.12
2022-10-08T07:36:33.324Z,1.98
2022-10-08T07:39:03.495Z,2.08
2022-10-08T07:41:32.768Z,2.35
2022-10-08T07:44:03.286Z,2.28
2022-10-08T07:46:35.704Z,2.03
2022-10-08T07:49:05.309Z,2.05
2022-10-08T07:51:35.434Z,1.70
2022-10-08T07:54:06.350Z,1.60
2022-10-08T07:56:36.260Z,2.05
2022-10-08T07:59:05.468Z,1.92
2022-10-08T08:01:36.033Z,2.15
2022-10-08T08:04:07.245Z,2.12
2022-10-08T08:06:40.489Z,2.05
2022-10-08T08:09:09.644Z,1.85
2022-10-08T08:11:39.662Z,1.77
2022-10-08T08:14:08.149Z,1.85
2022-10-08T08:16:38.055Z,1.45
2022-10-08T08:19:06.378Z,1.60
2022-10-08T08:21:36.709Z,1.83
2022-10-08T08:24:08.245Z,1.27
2022-10-08T08:26:38.905Z,1.37
2022-10-08T08:29:10.982Z,1.52
2022-10-08T08:31:43.424Z,1.40
2022-10-08T08:34:14.982Z,1.27
2022-10-08T08:36:45.656Z,1.17
2022-10-08T08:39:17.312Z,1.12
2022-10-08T08:42:00.491Z,1.20
2022-10-08T08:44:32.150Z,1.35
2022-10-08T08:47:13.669Z,1.23
2022-10-08T08:49:45.295Z,1.20
2022-10-08T08:52:16.441Z,0.93
2022-10-08T08:54:49.253Z,1.33
2022-10-08T08:57:32.655Z,1.02
2022-10-08T09:00:05.542Z,1.10
2022-10-08T09:02:39.468Z,1.17
2022-10-08T09:05:12.088Z,0.82
2022-10-08T09:07:45.432Z,1.15
2022-10-08T09:10:18.828Z,0.85
2022-10-08T09:12:49.236Z,0.88
2022-10-08T09:15:20.712Z,0.60
2022-10-08T09:17:53.199Z,0.82
2022-10-08T09:20:24.237Z,1.33
2022-10-08T09:22:54.048Z,1.08
2022-10-08T09:25:24.485Z,1.35
2022-10-08T09:27:55.418Z,1.25
2022-10-08T09:30:34.336Z,0.80
2022-10-08T09:33:17.463Z,0.70
2022-10-08T09:35:49.343Z,0.90
2022-10-08T09:38:26.226Z,0.60
2022-10-08T09:41:03.190Z,1.02
2022-10-08T09:43:31.981Z,0.60
2022-10-08T09:46:03.016Z,0.75
2022-10-08T09:48:32.948Z,0.65
2022-10-08T09:51:03.788Z,1.00
2022-10-08T09:53:41.555Z,0.90
2022-10-08T09:56:11.927Z,1.05
2022-10-08T09:58:50.528Z,0.90
2022-10-08T10:01:20.112Z,1.10
2022-10-08T10:03:56.484Z,0.82
2022-10-08T10:06:29.785Z,0.77
2022-10-08T10:09:03.132Z,1.02
2022-10-08T10:11:37.791Z,0.93
2022-10-08T10:14:15.331Z,0.93
2022-10-08T10:16:44.845Z,0.95
2022-10-08T10:19:19.377Z,0.90
2022-10-08T10:21:53.596Z,0.88
2022-10-08T10:24:37.257Z,0.70
2022-10-08T10:27:10.627Z,0.90
2022-10-08T10:29:49.854Z,1.17
2022-10-08T10:32:23.734Z,1.10
2022-10-08T10:35:00.932Z,0.88
2022-10-08T10:37:37.010Z,1.48
2022-10-08T10:40:30.981Z,1.10
2022-10-08T10:43:15.122Z,1.00
2022-10-08T10:45:49.457Z,1.33
2022-10-08T10:48:17.813Z,1.30
2022-10-08T10:51:00.028Z,1.27
2022-10-08T10:53:37.322Z,0.90
2022-10-08T10:56:14.188Z,0.90
2022-10-08T10:59:01.794Z,1.12
2022-10-08T11:01:41.372Z,0.85
2022-10-08T11:04:17.826Z,1.02
2022-10-08T11:07:03.384Z,0.90
2022-10-08T11:09:46.840Z,1.08
2022-10-08T11:12:28.404Z,1.12
2022-10-08T11:15:06.544Z,0.85
2022-10-08T11:17:45.094Z,0.70
2022-10-08T11:20:29.700Z,0.65
2022-10-08T11:23:08.478Z,0.80
2022-10-08T11:25:56.026Z,0.50
2022-10-08T11:28:49.773Z,0.80
2022-10-08T11:31:28.767Z,0.60
2022-10-08T11:33:58.364Z,0.70
2022-10-08T11:36:34.171Z,0.90
2022-10-08T11:39:14.437Z,0.55
2022-10-08T11:41:49.254Z,0.57
2022-10-08T11:44:18.791Z,0.52
2022-10-08T11:46:47.052Z,0.43
2022-10-08T11:49:54.158Z,0.50
2022-10-08T11:52:22.716Z,0.50
2022-10-08T11:54:55.902Z,0.45
2022-10-08T12:00:39.691Z,0.60
2022-10-08T12:03:23.251Z,0.70
2022-10-08T12:05:53.571Z,0.52
2022-10-08T12:08:54.129Z,0.68
2022-10-08T12:11:48.486Z,0.40
2022-10-08T12:14:49.213Z,0.90
2022-10-08T12:17:18.179Z,0.60
2022-10-08T12:20:04.302Z,0.62
2022-10-08T12:23:01.211Z,0.73
2022-10-08T12:25:37.289Z,0.73
2022-10-08T12:28:43.001Z,0.57
2022-10-08T12:31:29.401Z,0.60
2022-10-08T12:34:13.077Z,0.65
2022-10-08T12:36:50.823Z,0.40
2022-10-08T12:39:29.932Z,0.55
2022-10-08T12:42:10.662Z,0.80
2022-10-08T12:44:51.411Z,0.60
2022-10-08T12:47:35.267Z,0.80
2022-10-08T12:50:16.782Z,0.62
2022-10-08T12:52:46.063Z,0.68
2022-10-08T12:55:18.720Z,0.57
2022-10-08T12:57:49.891Z,0.65
2022-10-08T13:00:23.862Z,0.90
2022-10-08T13:03:04.986Z,0.60
2022-10-08T13:05:35.363Z,0.90
2022-10-08T13:08:19.429Z,0.60
2022-10-08T13:10:47.707Z,0.47
2022-10-08T13:13:50.640Z,0.57
2022-10-08T13:16:21.910Z,0.60
2022-10-08T13:18:54.001Z,0.68
2022-10-08T13:21:37.322Z,0.68
2022-10-08T13:24:30.644Z,0.90
2022-10-08T13:26:58.871Z,1.00
2022-10-08T13:29:33.841Z,0.88
2022-10-08T13:32:05.981Z,0.73
2022-10-08T13:34:42.498Z,0.40
2022-10-08T13:37:14.736Z,0.90
2022-10-08T13:39:51.691Z,0.75
2022-10-08T13:42:22.555Z,0.70
2022-10-08T13:44:52.388Z,0.50
2022-10-08T13:47:22.639Z,1.10
2022-10-08T13:49:55.459Z,0.65
2022-10-08T13:52:25.782Z,0.65
2022-10-08T13:54:59.146Z,0.70
2022-10-08T13:57:27.569Z,0.80
2022-10-08T13:59:56.426Z,0.70
2022-10-08T14:02:24.676Z,0.68
2022-10-08T14:04:54.530Z,0.80
2022-10-08T14:07:26.219Z,0.75
2022-10-08T14:09:57.182Z,0.73
2022-10-08T14:12:30.034Z,0.77
2022-10-08T14:14:58.578Z,0.62
2022-10-08T14:17:26.821Z,1.95
2022-10-08T14:19:56.540Z,0.88
2022-10-08T14:22:25.504Z,1.40
2022-10-08T14:24:53.747Z,0.85
2022-10-08T14:27:21.963Z,0.93
2022-10-08T14:29:50.499Z,1.08
2022-10-08T14:32:18.781Z,1.05
2022-10-08T14:34:46.958Z,1.10
2022-10-08T14:37:16.942Z,0.88
2022-10-08T14:39:45.346Z,0.70
2022-10-08T14:42:13.531Z,0.88
2022-10-08T14:44:41.975Z,0.95
2022-10-08T14:47:10.175Z,1.10
2022-10-08T14:49:38.991Z,0.73
2022-10-08T14:52:07.591Z,0.82
2022-10-08T14:54:37.278Z,0.88
2022-10-08T14:57:05.540Z,0.80
2022-10-08T14:59:39.052Z,1.23
2022-10-08T15:02:10.726Z,0.90
2022-10-08T15:04:39.393Z,1.20
2022-10-08T15:07:07.622Z,1.55
2022-10-08T15:09:40.497Z,2.78
2022-10-08T15:12:09.451Z,10.52
2022-10-08T15:14:38.494Z,2.00
2022-10-08T15:17:06.887Z,12.88
2022-10-08T15:19:35.525Z,5.62
2022-10-08T15:22:03.810Z,3.85
2022-10-08T15:24:32.022Z,8.32
2022-10-08T15:27:01.948Z,1.98
2022-10-08T15:29:30.226Z,1.77
2022-10-08T15:31:58.437Z,1.15
2022-10-08T15:34:26.954Z,1.77
2022-10-08T15:36:55.952Z,1.70
2022-10-08T15:39:24.499Z,1.70
2022-10-08T15:41:54.330Z,10.55
2022-10-08T15:44:25.503Z,3.47
2022-10-08T15:46:59.785Z,1.70
2022-10-08T15:49:31.182Z,1.55
2022-10-08T15:52:00.380Z,0.90
2022-10-08T15:54:28.599Z,1.30
2022-10-08T15:56:56.952Z,0.90
2022-10-08T15:59:26.800Z,0.73
2022-10-08T16:01:55.121Z,0.70
2022-10-08T16:04:23.856Z,0.30
2022-10-08T16:06:52.367Z,0.50
2022-10-08T16:09:22.036Z,0.47
2022-10-08T16:11:51.751Z,0.65
2022-10-08T16:14:22.055Z,0.47
2022-10-08T16:16:52.872Z,0.40
2022-10-08T16:19:23.396Z,0.60
2022-10-08T16:21:53.880Z,0.60
2022-10-08T16:24:22.370Z,0.52
2022-10-08T16:26:50.613Z,0.73
2022-10-08T16:29:19.797Z,0.40
2022-10-08T16:31:48.596Z,0.52
2022-10-08T16:34:20.410Z,0.50
2022-10-08T16:36:49.403Z,0.50
2022-10-08T16:39:19.736Z,0.73
2022-10-08T16:41:48.886Z,0.50
2022-10-08T16:44:19.263Z,0.65
2022-10-08T16:46:50.506Z,0.50
2022-10-08T16:49:25.334Z,0.75
2022-10-08T16:51:55.211Z,0.60
2022-10-08T16:54:23.798Z,0.47
2022-10-08T16:56:51.985Z,0.70
2022-10-08T16:59:22.610Z,0.62
2022-10-08T17:01:52.810Z,0.30
2022-10-08T17:04:24.252Z,0.52
2022-10-08T17:06:53.424Z,0.60
2022-10-08T17:09:21.732Z,0.68
2022-10-08T17:11:50.066Z,1.02
2022-10-08T17:14:18.605Z,0.70
2022-10-08T17:16:46.994Z,1.40
2022-10-08T17:19:15.424Z,1.08
2022-10-08T17:21:45.470Z,1.10
2022-10-08T17:24:13.856Z,1.62
2022-10-08T17:26:43.100Z,1.77
2022-10-08T17:29:12.926Z,3.37
2022-10-08T17:31:41.360Z,2.17
2022-10-08T17:34:10.204Z,1.92
2022-10-08T17:36:41.578Z,1.55
2022-10-08T17:39:13.757Z,3.25
2022-10-08T17:41:43.897Z,6.00
2022-10-08T17:44:12.670Z,1.85
2022-10-08T17:46:45.474Z,2.92
2022-10-08T17:49:14.912Z,1.85
2022-10-08T17:51:43.350Z,2.08
2022-10-08T17:54:15.617Z,1.50
2022-10-08T17:56:44.437Z,2.08
2022-10-08T17:59:15.215Z,1.70
2022-10-08T18:01:45.413Z,0.90
2022-10-08T18:04:16.737Z,0.85
2022-10-08T18:06:47.060Z,0.70
2022-10-08T18:09:19.952Z,1.00
2022-10-08T18:11:52.014Z,1.08
2022-10-08T18:14:21.730Z,0.73
2022-10-08T18:16:50.568Z,0.57
2022-10-08T18:19:19.676Z,0.60
2022-10-08T18:21:48.316Z,0.50
2022-10-08T18:24:19.001Z,0.70
2022-10-08T18:26:47.589Z,0.70
2022-10-08T18:29:16.358Z,0.70
2022-10-08T18:31:46.748Z,0.80
2022-10-08T18:34:17.299Z,0.65
2022-10-08T18:36:46.397Z,0.77
2022-10-08T18:39:17.290Z,0.85
2022-10-08T18:41:48.439Z,0.93
2022-10-08T18:44:19.690Z,1.02
2022-10-08T18:46:48.388Z,0.80
2022-10-08T18:49:18.909Z,1.15
2022-10-08T18:51:47.143Z,0.82
2022-10-08T18:54:15.582Z,1.20
2022-10-08T18:56:44.063Z,1.20
2022-10-08T18:59:15.777Z,1.25
2022-10-08T19:01:46.537Z,1.05
2022-10-08T19:04:18.139Z,1.08
2022-10-08T19:06:47.785Z,0.98
2022-10-08T19:09:16.726Z,0.93
2022-10-08T19:11:46.770Z,1.42
2022-10-08T19:14:19.384Z,1.20
2022-10-08T19:16:48.609Z,1.02
2022-10-08T19:19:19.245Z,1.20
2022-10-08T19:21:48.354Z,1.40
2022-10-08T19:24:19.107Z,1.40
2022-10-08T19:26:48.683Z,1.20
2022-10-08T19:29:21.605Z,1.27
2022-10-08T19:31:50.570Z,1.42
2022-10-08T19:34:20.992Z,1.12
2022-10-08T19:36:50.367Z,1.27
2022-10-08T19:39:22.117Z,0.88
2022-10-08T19:41:50.744Z,1.20
2022-10-08T19:44:21.324Z,1.30
2022-10-08T19:46:49.871Z,1.40
2022-10-08T19:49:19.016Z,1.15
2022-10-08T19:51:47.495Z,1.52
2022-10-08T19:54:17.106Z,1.65
2022-10-08T19:56:45.820Z,1.35
2022-10-08T19:59:14.549Z,1.75
2022-10-08T20:01:44.769Z,1.12
2022-10-08T20:04:14.062Z,1.30
2022-10-08T20:06:43.637Z,1.65
2022-10-08T20:09:13.526Z,1.33
2022-10-08T20:11:43.332Z,1.12
2022-10-08T20:14:12.432Z,1.50
2022-10-08T20:16:42.542Z,1.33
2022-10-08T20:19:17.609Z,1.23
2022-10-08T20:21:46.222Z,0.85
2022-10-08T20:24:15.181Z,1.10
2022-10-08T20:26:44.939Z,1.52
2022-10-08T20:29:15.225Z,1.20
2022-10-08T20:31:46.212Z,1.55
2022-10-08T20:34:18.538Z,1.50
2022-10-08T20:36:47.846Z,1.45
2022-10-08T20:39:21.094Z,1.20
2022-10-08T20:41:50.180Z,1.58
2022-10-08T20:44:18.540Z,1.52
2022-10-08T20:46:47.129Z,1.55
2022-10-08T20:49:17.031Z,1.58
2022-10-08T20:51:45.554Z,1.50
2022-10-08T20:54:16.011Z,1.58
2022-10-08T20:56:44.986Z,1.92
2022-10-08T20:59:16.661Z,1.25
2022-10-08T21:01:46.285Z,1.73
2022-10-08T21:04:14.806Z,1.52
2022-10-08T21:06:46.913Z,1.83
2022-10-08T21:09:17.546Z,1.73
2022-10-08T21:11:47.061Z,2.00
2022-10-08T21:14:18.123Z,1.80
2022-10-08T21:16:46.899Z,1.62
2022-10-08T21:19:16.696Z,1.75
2022-10-08T21:21:46.797Z,1.70
2022-10-08T21:24:16.927Z,1.70
2022-10-08T21:26:45.306Z,1.50
2022-10-08T21:29:15.393Z,1.48
2022-10-08T21:31:44.246Z,1.50
2022-10-08T21:34:13.771Z,1.80
2022-10-08T21:36:42.776Z,1.83
2022-10-08T21:39:16.651Z,1.70
2022-10-08T21:41:45.181Z,1.50
2022-10-08T21:44:13.683Z,1.70
2022-10-08T21:46:43.381Z,1.67
2022-10-08T21:49:14.340Z,1.60
2022-10-08T21:51:42.821Z,1.42
2022-10-08T21:54:13.867Z,1.80
2022-10-08T21:56:42.918Z,2.03
2022-10-08T21:59:14.007Z,2.42
2022-10-08T22:01:44.052Z,1.67
2022-10-08T22:04:15.468Z,1.55
2022-10-08T22:06:46.012Z,1.52
2022-10-08T22:09:18.438Z,1.80
2022-10-08T22:11:46.985Z,1.67
2022-10-08T22:14:16.023Z,1.50
2022-10-08T22:16:44.386Z,1.62
2022-10-08T22:19:13.141Z,1.80
2022-10-08T22:21:41.939Z,1.67
2022-10-08T22:24:10.313Z,2.33
2022-10-08T22:26:41.823Z,1.70
2022-10-08T22:29:11.195Z,1.27
2022-10-08T22:31:39.929Z,1.73
2022-10-08T22:34:08.425Z,1.92
2022-10-08T22:36:39.870Z,1.75
2022-10-08T22:39:08.952Z,2.20
2022-10-08T22:41:39.258Z,1.98
2022-10-08T22:44:07.718Z,1.90
2022-10-08T22:46:38.462Z,1.70
2022-10-08T22:49:09.229Z,1.87
2022-10-08T22:51:38.344Z,2.00
2022-10-08T22:54:07.434Z,1.70
2022-10-08T22:56:35.800Z,1.65
2022-10-08T22:59:05.501Z,1.83
2022-10-08T23:01:34.017Z,1.55
2022-10-08T23:04:02.312Z,1.98
2022-10-08T23:06:33.015Z,1.65
2022-10-08T23:09:03.336Z,1.73
2022-10-08T23:11:32.746Z,1.42
2022-10-08T23:14:01.737Z,1.37
2022-10-08T23:16:34.019Z,1.70
2022-10-08T23:19:05.051Z,1.60
2022-10-08T23:21:34.132Z,1.65
2022-10-08T23:24:03.126Z,1.48
2022-10-08T23:26:31.764Z,1.87
2022-10-08T23:29:01.760Z,1.90
2022-10-08T23:31:33.272Z,2.00
2022-10-08T23:34:02.422Z,1.80
2022-10-08T23:36:32.883Z,1.67
2022-10-08T23:39:01.519Z,1.95
2022-10-08T23:41:30.134Z,1.70
2022-10-08T23:43:58.926Z,1.58
2022-10-08T23:46:29.065Z,1.35
2022-10-08T23:49:00.294Z,1.95
2022-10-08T23:51:31.592Z,1.52
2022-10-08T23:54:01.103Z,1.77
2022-10-08T23:56:29.762Z,1.35
2022-10-08T23:58:58.344Z,1.40
